sensor_id;sensor_type;location;lat;lon;timestamp;temperature;humidity
36716;DHT22;22699;51.034;3.730;2024-03-06T00:01:49;9.00;99.90
36716;DHT22;22699;51.034;3.730;2024-03-06T00:04:15;9.20;99.90
36716;DHT22;22699;51.034;3.730;2024-03-06T00:06:40;9.10;99.90
36716;DHT22;22699;51.034;3.730;2024-03-06T00:09:06;9.10;99.90
36716;DHT22;22699;51.034;3.730;2024-03-06T00:11:34;9.20;99.90
36716;DHT22;22699;51.034;3.730;2024-03-06T00:14:04;9.10;99.90
36716;DHT22;22699;51.034;3.730;2024-03-06T00:16:32;9.00;99.90
36716;DHT22;22699;51.034;3.730;2024-03-06T00:18:58;9.00;99.90
36716;DHT22;22699;51.034;3.730;2024-03-06T00:21:23;8.80;99.90
36716;DHT22;22699;51.034;3.730;2024-03-06T00:23:49;8.80;99.90
36716;DHT22;22699;51.034;3.730;2024-03-06T00:26:14;8.90;99.90
36716;DHT22;22699;51.034;3.730;2024-03-06T00:28:40;8.80;99.90
36716;DHT22;22699;51.034;3.730;2024-03-06T00:31:06;8.80;99.90
36716;DHT22;22699;51.034;3.730;2024-03-06T00:33:31;8.80;99.90
36716;DHT22;22699;51.034;3.730;2024-03-06T00:35:57;8.90;99.90
36716;DHT22;22699;51.034;3.730;2024-03-06T00:38:23;8.80;99.90
36716;DHT22;22699;51.034;3.730;2024-03-06T00:40:48;8.70;99.90
36716;DHT22;22699;51.034;3.730;2024-03-06T00:43:14;8.70;99.90
36716;DHT22;22699;51.034;3.730;2024-03-06T00:45:40;8.70;99.90
36716;DHT22;22699;51.034;3.730;2024-03-06T00:48:06;8.70;99.90
36716;DHT22;22699;51.034;3.730;2024-03-06T00:50:32;8.70;99.90
36716;DHT22;22699;51.034;3.730;2024-03-06T00:52:58;8.70;99.90
36716;DHT22;22699;51.034;3.730;2024-03-06T00:55:23;8.70;99.90
36716;DHT22;22699;51.034;3.730;2024-03-06T00:57:49;8.50;99.90
36716;DHT22;22699;51.034;3.730;2024-03-06T01:00:15;8.40;99.90
36716;DHT22;22699;51.034;3.730;2024-03-06T01:02:41;8.50;99.90
36716;DHT22;22699;51.034;3.730;2024-03-06T01:05:07;8.50;99.90
36716;DHT22;22699;51.034;3.730;2024-03-06T01:07:35;8.60;99.90
36716;DHT22;22699;51.034;3.730;2024-03-06T01:10:03;8.60;99.90
36716;DHT22;22699;51.034;3.730;2024-03-06T01:12:28;8.70;99.90
36716;DHT22;22699;51.034;3.730;2024-03-06T01:14:54;8.50;99.90
36716;DHT22;22699;51.034;3.730;2024-03-06T01:17:20;8.60;99.90
36716;DHT22;22699;51.034;3.730;2024-03-06T01:19:45;8.60;99.90
36716;DHT22;22699;51.034;3.730;2024-03-06T01:22:11;8.50;99.90
36716;DHT22;22699;51.034;3.730;2024-03-06T01:24:40;8.40;99.90
36716;DHT22;22699;51.034;3.730;2024-03-06T01:27:05;8.30;99.90
36716;DHT22;22699;51.034;3.730;2024-03-06T01:29:32;8.40;99.90
36716;DHT22;22699;51.034;3.730;2024-03-06T01:31:58;8.40;99.90
36716;DHT22;22699;51.034;3.730;2024-03-06T01:34:24;8.30;99.90
36716;DHT22;22699;51.034;3.730;2024-03-06T01:36:51;8.30;99.90
36716;DHT22;22699;51.034;3.730;2024-03-06T01:39:16;8.30;99.90
36716;DHT22;22699;51.034;3.730;2024-03-06T01:41:51;8.20;99.90
36716;DHT22;22699;51.034;3.730;2024-03-06T01:44:18;8.20;99.90
36716;DHT22;22699;51.034;3.730;2024-03-06T01:46:44;8.10;99.90
36716;DHT22;22699;51.034;3.730;2024-03-06T01:49:11;8.00;99.90
36716;DHT22;22699;51.034;3.730;2024-03-06T01:51:38;8.20;99.90
36716;DHT22;22699;51.034;3.730;2024-03-06T01:54:06;7.90;99.90
36716;DHT22;22699;51.034;3.730;2024-03-06T01:56:34;7.80;99.90
36716;DHT22;22699;51.034;3.730;2024-03-06T01:59:01;7.80;99.90
36716;DHT22;22699;51.034;3.730;2024-03-06T02:01:29;7.80;99.90
36716;DHT22;22699;51.034;3.730;2024-03-06T02:03:56;7.70;99.90
36716;DHT22;22699;51.034;3.730;2024-03-06T02:06:22;7.70;99.90
36716;DHT22;22699;51.034;3.730;2024-03-06T02:08:48;7.80;99.90
36716;DHT22;22699;51.034;3.730;2024-03-06T02:11:14;7.80;99.90
36716;DHT22;22699;51.034;3.730;2024-03-06T02:13:41;7.70;99.90
36716;DHT22;22699;51.034;3.730;2024-03-06T02:16:07;7.70;99.90
36716;DHT22;22699;51.034;3.730;2024-03-06T02:18:33;7.60;99.90
36716;DHT22;22699;51.034;3.730;2024-03-06T02:20:58;7.90;99.90
36716;DHT22;22699;51.034;3.730;2024-03-06T02:23:24;7.50;99.90
36716;DHT22;22699;51.034;3.730;2024-03-06T02:25:50;7.50;99.90
36716;DHT22;22699;51.034;3.730;2024-03-06T02:28:16;7.40;99.90
36716;DHT22;22699;51.034;3.730;2024-03-06T02:30:43;7.40;99.90
36716;DHT22;22699;51.034;3.730;2024-03-06T02:33:09;7.40;99.90
36716;DHT22;22699;51.034;3.730;2024-03-06T02:35:35;7.50;99.90
36716;DHT22;22699;51.034;3.730;2024-03-06T02:38:02;7.70;99.90
36716;DHT22;22699;51.034;3.730;2024-03-06T02:40:32;7.60;99.90
36716;DHT22;22699;51.034;3.730;2024-03-06T02:42:58;7.60;99.90
36716;DHT22;22699;51.034;3.730;2024-03-06T02:45:24;7.60;99.90
36716;DHT22;22699;51.034;3.730;2024-03-06T02:47:49;7.50;99.90
36716;DHT22;22699;51.034;3.730;2024-03-06T02:50:16;7.50;99.90
36716;DHT22;22699;51.034;3.730;2024-03-06T02:52:42;7.50;99.90
36716;DHT22;22699;51.034;3.730;2024-03-06T02:55:08;7.50;99.90
36716;DHT22;22699;51.034;3.730;2024-03-06T02:57:33;7.50;99.90
36716;DHT22;22699;51.034;3.730;2024-03-06T02:59:59;7.60;99.90
36716;DHT22;22699;51.034;3.730;2024-03-06T03:02:25;7.50;99.90
36716;DHT22;22699;51.034;3.730;2024-03-06T03:04:53;7.50;99.90
36716;DHT22;22699;51.034;3.730;2024-03-06T03:07:19;7.40;99.90
36716;DHT22;22699;51.034;3.730;2024-03-06T03:09:45;7.20;99.90
36716;DHT22;22699;51.034;3.730;2024-03-06T03:12:11;7.40;99.90
36716;DHT22;22699;51.034;3.730;2024-03-06T03:14:37;7.20;99.90
36716;DHT22;22699;51.034;3.730;2024-03-06T03:17:03;7.20;99.90
36716;DHT22;22699;51.034;3.730;2024-03-06T03:19:31;7.30;99.90
36716;DHT22;22699;51.034;3.730;2024-03-06T03:21:56;7.30;99.90
36716;DHT22;22699;51.034;3.730;2024-03-06T03:24:23;7.20;99.90
36716;DHT22;22699;51.034;3.730;2024-03-06T03:26:51;7.20;99.90
36716;DHT22;22699;51.034;3.730;2024-03-06T03:29:17;7.10;99.90
36716;DHT22;22699;51.034;3.730;2024-03-06T03:31:43;7.10;99.90
36716;DHT22;22699;51.034;3.730;2024-03-06T03:34:08;7.10;99.90
36716;DHT22;22699;51.034;3.730;2024-03-06T03:36:39;7.00;99.90
36716;DHT22;22699;51.034;3.730;2024-03-06T03:39:04;7.00;99.90
36716;DHT22;22699;51.034;3.730;2024-03-06T03:41:30;6.90;99.90
36716;DHT22;22699;51.034;3.730;2024-03-06T03:43:55;6.90;99.90
36716;DHT22;22699;51.034;3.730;2024-03-06T03:46:21;6.90;99.90
36716;DHT22;22699;51.034;3.730;2024-03-06T03:48:47;6.90;99.90
36716;DHT22;22699;51.034;3.730;2024-03-06T03:51:12;6.90;99.90
36716;DHT22;22699;51.034;3.730;2024-03-06T03:53:39;6.90;99.90
36716;DHT22;22699;51.034;3.730;2024-03-06T03:56:05;7.00;99.90
36716;DHT22;22699;51.034;3.730;2024-03-06T03:58:31;7.10;99.90
36716;DHT22;22699;51.034;3.730;2024-03-06T04:00:57;7.20;99.90
36716;DHT22;22699;51.034;3.730;2024-03-06T04:03:23;7.10;99.90
36716;DHT22;22699;51.034;3.730;2024-03-06T04:05:49;7.20;99.90
36716;DHT22;22699;51.034;3.730;2024-03-06T04:08:15;7.20;99.90
36716;DHT22;22699;51.034;3.730;2024-03-06T04:10:42;7.20;99.90
36716;DHT22;22699;51.034;3.730;2024-03-06T04:13:10;7.10;99.90
36716;DHT22;22699;51.034;3.730;2024-03-06T04:15:36;7.00;99.90
36716;DHT22;22699;51.034;3.730;2024-03-06T04:18:02;7.10;99.90
36716;DHT22;22699;51.034;3.730;2024-03-06T04:20:27;6.90;99.90
36716;DHT22;22699;51.034;3.730;2024-03-06T04:22:53;6.80;99.90
36716;DHT22;22699;51.034;3.730;2024-03-06T04:25:18;6.90;99.90
36716;DHT22;22699;51.034;3.730;2024-03-06T04:27:44;7.00;99.90
36716;DHT22;22699;51.034;3.730;2024-03-06T04:30:10;7.00;99.90
36716;DHT22;22699;51.034;3.730;2024-03-06T04:32:36;6.90;99.90
36716;DHT22;22699;51.034;3.730;2024-03-06T04:35:02;6.80;99.90
36716;DHT22;22699;51.034;3.730;2024-03-06T04:37:27;6.70;99.90
36716;DHT22;22699;51.034;3.730;2024-03-06T04:39:54;6.60;99.90
36716;DHT22;22699;51.034;3.730;2024-03-06T04:42:20;6.70;99.90
36716;DHT22;22699;51.034;3.730;2024-03-06T04:44:46;6.60;99.90
36716;DHT22;22699;51.034;3.730;2024-03-06T04:47:11;6.70;99.90
36716;DHT22;22699;51.034;3.730;2024-03-06T04:49:37;6.70;99.90
36716;DHT22;22699;51.034;3.730;2024-03-06T04:52:03;6.70;99.90
36716;DHT22;22699;51.034;3.730;2024-03-06T04:54:29;6.60;99.90
36716;DHT22;22699;51.034;3.730;2024-03-06T04:56:55;6.60;99.90
36716;DHT22;22699;51.034;3.730;2024-03-06T04:59:21;6.50;99.90
36716;DHT22;22699;51.034;3.730;2024-03-06T05:01:46;6.50;99.90
36716;DHT22;22699;51.034;3.730;2024-03-06T05:04:12;6.50;99.90
36716;DHT22;22699;51.034;3.730;2024-03-06T05:06:38;6.60;99.90
36716;DHT22;22699;51.034;3.730;2024-03-06T05:09:04;6.50;99.90
36716;DHT22;22699;51.034;3.730;2024-03-06T05:11:31;6.50;99.90
36716;DHT22;22699;51.034;3.730;2024-03-06T05:14:00;6.40;99.90
36716;DHT22;22699;51.034;3.730;2024-03-06T05:16:25;6.40;99.90
36716;DHT22;22699;51.034;3.730;2024-03-06T05:18:52;6.40;99.90
36716;DHT22;22699;51.034;3.730;2024-03-06T05:21:18;6.40;99.90
36716;DHT22;22699;51.034;3.730;2024-03-06T05:23:43;6.40;99.90
36716;DHT22;22699;51.034;3.730;2024-03-06T05:26:09;6.40;99.90
36716;DHT22;22699;51.034;3.730;2024-03-06T05:28:34;6.40;99.90
36716;DHT22;22699;51.034;3.730;2024-03-06T05:31:00;6.40;99.90
36716;DHT22;22699;51.034;3.730;2024-03-06T05:33:26;6.50;99.90
36716;DHT22;22699;51.034;3.730;2024-03-06T05:35:54;6.50;99.90
36716;DHT22;22699;51.034;3.730;2024-03-06T05:38:19;6.60;99.90
36716;DHT22;22699;51.034;3.730;2024-03-06T05:40:47;6.60;99.90
36716;DHT22;22699;51.034;3.730;2024-03-06T05:43:13;6.60;99.90
36716;DHT22;22699;51.034;3.730;2024-03-06T05:45:38;6.60;99.90
36716;DHT22;22699;51.034;3.730;2024-03-06T05:48:04;6.50;99.90
36716;DHT22;22699;51.034;3.730;2024-03-06T05:50:30;6.50;99.90
36716;DHT22;22699;51.034;3.730;2024-03-06T05:52:57;6.40;99.90
36716;DHT22;22699;51.034;3.730;2024-03-06T05:55:23;6.50;99.90
36716;DHT22;22699;51.034;3.730;2024-03-06T05:57:48;6.50;99.90
36716;DHT22;22699;51.034;3.730;2024-03-06T06:00:15;6.40;99.90
36716;DHT22;22699;51.034;3.730;2024-03-06T06:02:43;6.40;99.90
36716;DHT22;22699;51.034;3.730;2024-03-06T06:05:10;6.40;99.90
36716;DHT22;22699;51.034;3.730;2024-03-06T06:07:36;6.30;99.90
36716;DHT22;22699;51.034;3.730;2024-03-06T06:10:04;6.30;99.90
36716;DHT22;22699;51.034;3.730;2024-03-06T06:12:33;6.20;99.90
36716;DHT22;22699;51.034;3.730;2024-03-06T06:14:59;6.20;99.90
36716;DHT22;22699;51.034;3.730;2024-03-06T06:17:24;6.30;99.90
36716;DHT22;22699;51.034;3.730;2024-03-06T06:19:50;6.20;99.90
36716;DHT22;22699;51.034;3.730;2024-03-06T06:22:16;6.20;99.90
36716;DHT22;22699;51.034;3.730;2024-03-06T06:24:41;6.20;99.90
36716;DHT22;22699;51.034;3.730;2024-03-06T06:27:07;6.20;99.90
36716;DHT22;22699;51.034;3.730;2024-03-06T06:29:33;6.30;99.90
36716;DHT22;22699;51.034;3.730;2024-03-06T06:32:00;6.40;99.90
36716;DHT22;22699;51.034;3.730;2024-03-06T06:34:26;6.40;99.90
36716;DHT22;22699;51.034;3.730;2024-03-06T06:36:53;6.40;99.90
36716;DHT22;22699;51.034;3.730;2024-03-06T06:39:20;6.60;99.90
36716;DHT22;22699;51.034;3.730;2024-03-06T06:41:47;6.50;99.90
36716;DHT22;22699;51.034;3.730;2024-03-06T06:44:12;6.50;99.90
36716;DHT22;22699;51.034;3.730;2024-03-06T06:46:39;6.60;99.90
36716;DHT22;22699;51.034;3.730;2024-03-06T06:49:05;6.80;99.90
36716;DHT22;22699;51.034;3.730;2024-03-06T06:51:30;6.60;99.90
36716;DHT22;22699;51.034;3.730;2024-03-06T06:53:56;6.60;99.90
36716;DHT22;22699;51.034;3.730;2024-03-06T06:56:22;6.70;99.90
36716;DHT22;22699;51.034;3.730;2024-03-06T06:58:49;6.80;99.90
36716;DHT22;22699;51.034;3.730;2024-03-06T07:01:15;6.90;99.90
36716;DHT22;22699;51.034;3.730;2024-03-06T07:03:42;7.10;99.90
36716;DHT22;22699;51.034;3.730;2024-03-06T07:06:09;7.20;99.90
36716;DHT22;22699;51.034;3.730;2024-03-06T07:08:36;7.20;99.90
36716;DHT22;22699;51.034;3.730;2024-03-06T07:11:03;7.30;99.90
36716;DHT22;22699;51.034;3.730;2024-03-06T07:13:30;7.50;99.90
36716;DHT22;22699;51.034;3.730;2024-03-06T07:15:56;7.70;99.90
36716;DHT22;22699;51.034;3.730;2024-03-06T07:18:21;8.10;99.90
36716;DHT22;22699;51.034;3.730;2024-03-06T07:20:47;7.80;99.90
36716;DHT22;22699;51.034;3.730;2024-03-06T07:23:13;7.40;99.90
36716;DHT22;22699;51.034;3.730;2024-03-06T07:25:38;7.30;99.90
36716;DHT22;22699;51.034;3.730;2024-03-06T07:28:05;7.30;99.90
36716;DHT22;22699;51.034;3.730;2024-03-06T07:30:31;7.60;99.90
36716;DHT22;22699;51.034;3.730;2024-03-06T07:32:57;7.50;99.90
36716;DHT22;22699;51.034;3.730;2024-03-06T07:35:28;7.40;99.90
36716;DHT22;22699;51.034;3.730;2024-03-06T07:37:54;7.60;99.90
36716;DHT22;22699;51.034;3.730;2024-03-06T07:40:20;7.60;99.90
36716;DHT22;22699;51.034;3.730;2024-03-06T07:42:47;7.80;99.90
36716;DHT22;22699;51.034;3.730;2024-03-06T07:45:15;8.10;99.90
36716;DHT22;22699;51.034;3.730;2024-03-06T07:47:41;8.20;99.90
36716;DHT22;22699;51.034;3.730;2024-03-06T07:50:08;8.40;99.90
36716;DHT22;22699;51.034;3.730;2024-03-06T07:52:36;8.80;99.90
36716;DHT22;22699;51.034;3.730;2024-03-06T07:55:04;8.50;99.90
36716;DHT22;22699;51.034;3.730;2024-03-06T07:57:34;8.20;99.90
36716;DHT22;22699;51.034;3.730;2024-03-06T07:59:59;8.40;99.90
36716;DHT22;22699;51.034;3.730;2024-03-06T08:02:25;8.40;99.90
36716;DHT22;22699;51.034;3.730;2024-03-06T08:04:51;8.40;99.90
36716;DHT22;22699;51.034;3.730;2024-03-06T08:07:16;8.40;99.90
36716;DHT22;22699;51.034;3.730;2024-03-06T08:09:42;8.40;99.90
36716;DHT22;22699;51.034;3.730;2024-03-06T08:12:08;8.40;99.90
36716;DHT22;22699;51.034;3.730;2024-03-06T08:14:34;8.60;99.90
36716;DHT22;22699;51.034;3.730;2024-03-06T08:17:00;8.60;99.90
36716;DHT22;22699;51.034;3.730;2024-03-06T08:19:29;8.50;99.90
36716;DHT22;22699;51.034;3.730;2024-03-06T08:21:54;8.30;99.90
36716;DHT22;22699;51.034;3.730;2024-03-06T08:24:20;8.30;99.90
36716;DHT22;22699;51.034;3.730;2024-03-06T08:26:56;8.10;99.90
36716;DHT22;22699;51.034;3.730;2024-03-06T08:29:28;7.90;99.90
36716;DHT22;22699;51.034;3.730;2024-03-06T08:31:53;7.90;99.90
36716;DHT22;22699;51.034;3.730;2024-03-06T08:34:23;7.60;99.90
36716;DHT22;22699;51.034;3.730;2024-03-06T08:36:49;7.90;99.90
36716;DHT22;22699;51.034;3.730;2024-03-06T08:39:15;7.90;99.90
36716;DHT22;22699;51.034;3.730;2024-03-06T08:41:41;8.10;99.90
36716;DHT22;22699;51.034;3.730;2024-03-06T08:44:07;8.30;99.90
36716;DHT22;22699;51.034;3.730;2024-03-06T08:46:33;8.40;99.90
36716;DHT22;22699;51.034;3.730;2024-03-06T08:48:58;8.50;99.90
36716;DHT22;22699;51.034;3.730;2024-03-06T08:51:24;8.40;99.90
36716;DHT22;22699;51.034;3.730;2024-03-06T08:53:51;8.70;99.90
36716;DHT22;22699;51.034;3.730;2024-03-06T08:56:17;8.60;99.90
36716;DHT22;22699;51.034;3.730;2024-03-06T08:58:45;8.70;99.90
36716;DHT22;22699;51.034;3.730;2024-03-06T09:01:10;8.90;99.90
36716;DHT22;22699;51.034;3.730;2024-03-06T09:03:36;8.70;99.90
36716;DHT22;22699;51.034;3.730;2024-03-06T09:06:01;8.60;99.90
36716;DHT22;22699;51.034;3.730;2024-03-06T09:08:28;8.70;99.90
36716;DHT22;22699;51.034;3.730;2024-03-06T09:10:54;8.60;99.90
36716;DHT22;22699;51.034;3.730;2024-03-06T09:13:19;9.10;99.90
36716;DHT22;22699;51.034;3.730;2024-03-06T09:15:45;9.30;99.90
36716;DHT22;22699;51.034;3.730;2024-03-06T09:18:10;9.20;99.90
36716;DHT22;22699;51.034;3.730;2024-03-06T09:20:36;9.50;99.90
36716;DHT22;22699;51.034;3.730;2024-03-06T09:23:02;9.50;99.90
36716;DHT22;22699;51.034;3.730;2024-03-06T09:25:28;9.80;99.90
36716;DHT22;22699;51.034;3.730;2024-03-06T09:27:54;10.00;99.90
36716;DHT22;22699;51.034;3.730;2024-03-06T09:30:19;10.50;99.90
36716;DHT22;22699;51.034;3.730;2024-03-06T09:32:45;10.50;99.90
36716;DHT22;22699;51.034;3.730;2024-03-06T09:35:11;11.50;99.90
36716;DHT22;22699;51.034;3.730;2024-03-06T09:37:36;12.00;99.90
36716;DHT22;22699;51.034;3.730;2024-03-06T09:40:02;12.00;99.90
36716;DHT22;22699;51.034;3.730;2024-03-06T09:42:28;11.70;99.90
36716;DHT22;22699;51.034;3.730;2024-03-06T09:44:55;11.50;99.90
36716;DHT22;22699;51.034;3.730;2024-03-06T09:47:22;11.90;99.90
36716;DHT22;22699;51.034;3.730;2024-03-06T09:49:51;12.00;99.90
36716;DHT22;22699;51.034;3.730;2024-03-06T09:52:18;12.10;99.90
36716;DHT22;22699;51.034;3.730;2024-03-06T09:54:44;12.30;99.90
36716;DHT22;22699;51.034;3.730;2024-03-06T09:57:10;12.10;99.90
36716;DHT22;22699;51.034;3.730;2024-03-06T09:59:38;12.50;99.90
36716;DHT22;22699;51.034;3.730;2024-03-06T10:04:54;13.00;99.90
36716;DHT22;22699;51.034;3.730;2024-03-06T10:07:20;13.20;99.90
36716;DHT22;22699;51.034;3.730;2024-03-06T10:09:47;13.20;99.90
36716;DHT22;22699;51.034;3.730;2024-03-06T10:12:15;13.10;99.90
36716;DHT22;22699;51.034;3.730;2024-03-06T10:14:49;13.30;99.90
36716;DHT22;22699;51.034;3.730;2024-03-06T10:17:19;13.90;99.90
36716;DHT22;22699;51.034;3.730;2024-03-06T10:19:48;14.10;99.90
36716;DHT22;22699;51.034;3.730;2024-03-06T10:22:16;13.20;99.90
36716;DHT22;22699;51.034;3.730;2024-03-06T10:24:42;13.60;99.90
36716;DHT22;22699;51.034;3.730;2024-03-06T10:27:08;14.00;99.90
36716;DHT22;22699;51.034;3.730;2024-03-06T10:29:34;14.00;99.90
36716;DHT22;22699;51.034;3.730;2024-03-06T10:32:01;14.10;99.90
36716;DHT22;22699;51.034;3.730;2024-03-06T10:34:27;14.60;99.90
36716;DHT22;22699;51.034;3.730;2024-03-06T10:36:59;14.80;99.90
36716;DHT22;22699;51.034;3.730;2024-03-06T10:39:26;14.30;99.90
36716;DHT22;22699;51.034;3.730;2024-03-06T10:41:56;14.30;99.90
36716;DHT22;22699;51.034;3.730;2024-03-06T10:44:24;14.30;99.90
36716;DHT22;22699;51.034;3.730;2024-03-06T10:46:58;14.40;99.90
36716;DHT22;22699;51.034;3.730;2024-03-06T10:49:26;14.20;99.90
36716;DHT22;22699;51.034;3.730;2024-03-06T10:51:57;13.60;99.90
36716;DHT22;22699;51.034;3.730;2024-03-06T10:54:26;12.50;99.90
36716;DHT22;22699;51.034;3.730;2024-03-06T10:56:52;12.60;99.90
36716;DHT22;22699;51.034;3.730;2024-03-06T10:59:20;12.00;99.90
36716;DHT22;22699;51.034;3.730;2024-03-06T11:01:47;12.00;99.90
36716;DHT22;22699;51.034;3.730;2024-03-06T11:04:13;11.90;99.90
36716;DHT22;22699;51.034;3.730;2024-03-06T11:06:40;12.10;99.90
36716;DHT22;22699;51.034;3.730;2024-03-06T11:09:07;12.10;99.90
36716;DHT22;22699;51.034;3.730;2024-03-06T11:11:50;12.20;99.90
36716;DHT22;22699;51.034;3.730;2024-03-06T11:14:17;11.90;99.90
36716;DHT22;22699;51.034;3.730;2024-03-06T11:17:06;12.20;99.90
36716;DHT22;22699;51.034;3.730;2024-03-06T11:28:20;12.00;99.90
36716;DHT22;22699;51.034;3.730;2024-03-06T11:31:01;12.40;99.90
36716;DHT22;22699;51.034;3.730;2024-03-06T11:36:23;12.70;99.90
36716;DHT22;22699;51.034;3.730;2024-03-06T11:41:31;12.10;99.90
36716;DHT22;22699;51.034;3.730;2024-03-06T11:44:00;12.10;99.90
36716;DHT22;22699;51.034;3.730;2024-03-06T11:46:45;12.30;99.90
36716;DHT22;22699;51.034;3.730;2024-03-06T11:51:48;12.80;99.90
36716;DHT22;22699;51.034;3.730;2024-03-06T11:54:14;12.90;99.90
36716;DHT22;22699;51.034;3.730;2024-03-06T11:56:44;12.90;99.90
36716;DHT22;22699;51.034;3.730;2024-03-06T11:59:12;13.10;99.90
36716;DHT22;22699;51.034;3.730;2024-03-06T12:01:40;12.80;99.90
36716;DHT22;22699;51.034;3.730;2024-03-06T12:04:06;12.90;99.90
36716;DHT22;22699;51.034;3.730;2024-03-06T12:06:37;13.00;99.70
36716;DHT22;22699;51.034;3.730;2024-03-06T12:09:03;12.70;99.70
36716;DHT22;22699;51.034;3.730;2024-03-06T12:11:29;12.70;99.90
36716;DHT22;22699;51.034;3.730;2024-03-06T12:13:59;12.70;99.50
36716;DHT22;22699;51.034;3.730;2024-03-06T12:16:26;12.90;99.30
36716;DHT22;22699;51.034;3.730;2024-03-06T12:18:57;12.50;99.70
36716;DHT22;22699;51.034;3.730;2024-03-06T12:21:32;12.50;99.90
36716;DHT22;22699;51.034;3.730;2024-03-06T12:24:05;12.60;99.90
36716;DHT22;22699;51.034;3.730;2024-03-06T12:26:33;12.80;99.90
36716;DHT22;22699;51.034;3.730;2024-03-06T12:29:18;12.90;99.90
36716;DHT22;22699;51.034;3.730;2024-03-06T12:31:52;12.70;99.80
36716;DHT22;22699;51.034;3.730;2024-03-06T12:34:18;12.70;99.70
36716;DHT22;22699;51.034;3.730;2024-03-06T12:36:44;12.30;99.90
36716;DHT22;22699;51.034;3.730;2024-03-06T12:39:15;12.20;99.90
36716;DHT22;22699;51.034;3.730;2024-03-06T12:41:43;12.40;99.90
36716;DHT22;22699;51.034;3.730;2024-03-06T12:44:10;12.70;99.90
36716;DHT22;22699;51.034;3.730;2024-03-06T12:46:35;12.90;99.90
36716;DHT22;22699;51.034;3.730;2024-03-06T12:49:01;12.60;99.90
36716;DHT22;22699;51.034;3.730;2024-03-06T12:51:27;12.60;99.90
36716;DHT22;22699;51.034;3.730;2024-03-06T12:53:52;12.80;99.90
36716;DHT22;22699;51.034;3.730;2024-03-06T12:56:18;13.00;99.90
36716;DHT22;22699;51.034;3.730;2024-03-06T12:58:44;13.10;99.30
36716;DHT22;22699;51.034;3.730;2024-03-06T13:01:10;13.20;99.70
36716;DHT22;22699;51.034;3.730;2024-03-06T13:03:36;13.90;98.90
36716;DHT22;22699;51.034;3.730;2024-03-06T13:06:03;14.40;98.60
36716;DHT22;22699;51.034;3.730;2024-03-06T13:08:29;14.30;97.70
36716;DHT22;22699;51.034;3.730;2024-03-06T13:10:55;13.70;97.90
36716;DHT22;22699;51.034;3.730;2024-03-06T13:13:22;13.90;97.80
36716;DHT22;22699;51.034;3.730;2024-03-06T13:15:52;14.00;96.90
36716;DHT22;22699;51.034;3.730;2024-03-06T13:18:18;13.70;97.10
36716;DHT22;22699;51.034;3.730;2024-03-06T13:20:44;13.50;97.50
36716;DHT22;22699;51.034;3.730;2024-03-06T13:23:10;13.60;97.60
36716;DHT22;22699;51.034;3.730;2024-03-06T13:25:36;13.20;97.80
36716;DHT22;22699;51.034;3.730;2024-03-06T13:28:02;13.30;97.60
36716;DHT22;22699;51.034;3.730;2024-03-06T13:30:28;13.60;96.50
36716;DHT22;22699;51.034;3.730;2024-03-06T13:32:54;13.80;96.30
36716;DHT22;22699;51.034;3.730;2024-03-06T13:35:20;13.50;96.30
36716;DHT22;22699;51.034;3.730;2024-03-06T13:37:46;13.10;96.70
36716;DHT22;22699;51.034;3.730;2024-03-06T13:40:12;12.80;97.10
36716;DHT22;22699;51.034;3.730;2024-03-06T13:42:39;12.90;97.00
36716;DHT22;22699;51.034;3.730;2024-03-06T13:45:06;13.00;96.70
36716;DHT22;22699;51.034;3.730;2024-03-06T13:47:42;12.50;97.00
36716;DHT22;22699;51.034;3.730;2024-03-06T13:50:13;12.80;97.40
36716;DHT22;22699;51.034;3.730;2024-03-06T13:52:41;13.20;97.10
36716;DHT22;22699;51.034;3.730;2024-03-06T13:55:07;13.60;96.80
36716;DHT22;22699;51.034;3.730;2024-03-06T13:57:34;13.20;97.20
36716;DHT22;22699;51.034;3.730;2024-03-06T14:00:01;12.80;97.90
36716;DHT22;22699;51.034;3.730;2024-03-06T14:02:27;12.80;98.50
36716;DHT22;22699;51.034;3.730;2024-03-06T14:04:53;13.20;97.90
36716;DHT22;22699;51.034;3.730;2024-03-06T14:07:18;13.70;97.30
36716;DHT22;22699;51.034;3.730;2024-03-06T14:09:44;14.20;96.50
36716;DHT22;22699;51.034;3.730;2024-03-06T14:12:09;14.00;95.70
36716;DHT22;22699;51.034;3.730;2024-03-06T14:14:35;13.70;96.30
36716;DHT22;22699;51.034;3.730;2024-03-06T14:17:00;13.20;96.70
36716;DHT22;22699;51.034;3.730;2024-03-06T14:19:26;13.10;96.60
36716;DHT22;22699;51.034;3.730;2024-03-06T14:21:52;13.00;96.80
36716;DHT22;22699;51.034;3.730;2024-03-06T14:24:17;13.10;96.70
36716;DHT22;22699;51.034;3.730;2024-03-06T14:26:43;13.30;96.40
36716;DHT22;22699;51.034;3.730;2024-03-06T14:29:10;13.40;95.80
36716;DHT22;22699;51.034;3.730;2024-03-06T14:31:36;13.30;96.30
36716;DHT22;22699;51.034;3.730;2024-03-06T14:34:01;13.40;96.40
36716;DHT22;22699;51.034;3.730;2024-03-06T14:36:27;13.30;96.40
36716;DHT22;22699;51.034;3.730;2024-03-06T14:38:54;13.20;96.20
36716;DHT22;22699;51.034;3.730;2024-03-06T14:41:20;13.10;96.50
36716;DHT22;22699;51.034;3.730;2024-03-06T14:43:46;13.10;96.80
36716;DHT22;22699;51.034;3.730;2024-03-06T14:46:12;12.90;97.20
36716;DHT22;22699;51.034;3.730;2024-03-06T14:48:38;12.50;97.60
36716;DHT22;22699;51.034;3.730;2024-03-06T14:51:05;12.40;97.90
36716;DHT22;22699;51.034;3.730;2024-03-06T14:53:30;12.30;98.00
36716;DHT22;22699;51.034;3.730;2024-03-06T14:55:57;12.40;98.20
36716;DHT22;22699;51.034;3.730;2024-03-06T14:58:22;12.00;98.10
36716;DHT22;22699;51.034;3.730;2024-03-06T15:00:51;12.10;98.30
36716;DHT22;22699;51.034;3.730;2024-03-06T15:03:17;12.30;98.10
36716;DHT22;22699;51.034;3.730;2024-03-06T15:05:44;12.50;97.80
36716;DHT22;22699;51.034;3.730;2024-03-06T15:08:11;12.80;97.50
36716;DHT22;22699;51.034;3.730;2024-03-06T15:10:37;13.00;97.40
36716;DHT22;22699;51.034;3.730;2024-03-06T15:13:03;13.00;96.90
36716;DHT22;22699;51.034;3.730;2024-03-06T15:15:28;13.20;96.20
36716;DHT22;22699;51.034;3.730;2024-03-06T15:17:54;13.40;96.50
36716;DHT22;22699;51.034;3.730;2024-03-06T15:20:20;13.50;96.40
36716;DHT22;22699;51.034;3.730;2024-03-06T15:22:50;13.40;95.80
36716;DHT22;22699;51.034;3.730;2024-03-06T15:25:17;13.00;93.60
36716;DHT22;22699;51.034;3.730;2024-03-06T15:27:43;12.80;93.70
36716;DHT22;22699;51.034;3.730;2024-03-06T15:30:10;12.80;93.90
36716;DHT22;22699;51.034;3.730;2024-03-06T15:32:40;12.90;93.00
36716;DHT22;22699;51.034;3.730;2024-03-06T15:35:06;12.60;93.30
36716;DHT22;22699;51.034;3.730;2024-03-06T15:37:34;12.60;92.70
36716;DHT22;22699;51.034;3.730;2024-03-06T15:40:00;12.50;93.30
36716;DHT22;22699;51.034;3.730;2024-03-06T15:42:26;12.40;93.80
36716;DHT22;22699;51.034;3.730;2024-03-06T15:44:52;12.60;93.00
36716;DHT22;22699;51.034;3.730;2024-03-06T15:47:18;12.80;92.80
36716;DHT22;22699;51.034;3.730;2024-03-06T15:49:45;12.90;93.00
36716;DHT22;22699;51.034;3.730;2024-03-06T15:52:14;13.00;92.60
36716;DHT22;22699;51.034;3.730;2024-03-06T15:54:41;13.10;92.70
36716;DHT22;22699;51.034;3.730;2024-03-06T15:57:07;13.20;92.70